Pagrindinis puslapis
METAR-TAF:

METAR-TAF

Oro uostai :

Brianskas, Rusija

platuma: 53-15N, ilguma: 034-19E, Aukštis: 217 m

Dabartinis oras

Ataskaita buvo paskelbta 35 minutes, ne 03:00 UTC
Vėjas 8 kt iš Pietų
Temperatūra 3°C
Drėgmė 93%
Slėgis 1015 hPa
Matomumas: 2200 m
Su prošvaistėmis ne aukštis 400 ft
Apsiniaukę ne aukštis 1400 ft, Liūtiniai kamuoliniai debesys.
lietus, rūkana

METAR: UUBP 180300Z 18004MPS 2200 -SHRA BR BKN004 OVC014CB 03/02 Q1015 R16/CLRD70 NOSIG RMK QFE743/0991

Laikas: 06:35 (03:35 UTC)

Prognozė

Ataskaita buvo paskelbta 13 valandos ir 36 minutes, ne 13:59 UTC
Prognozė galioja nuo 17 metu 15 UTC su 17 metu 24 UTC
Vėjas 14 kt iš Pietų su gūsio iki 23 kt
Matomumas 10 km arba daugiau
Su prošvaistėmis ne aukštis 2000 ft

TAF: UUBP 171359Z 1715/1724 19007G12MPS 9999 BKN020

Orai ataskaitas ir orų prognozės (METAR, TAF).

turimą stotys yra geltonos ir raudonos taškus žemėlapyje.

Perkelti pele per norėdami pamatyti stoties vardą.

Tada spustelėkite, norėdami matyti oro stebėjimo ir prognozės.

Norėdami pakeisti žemėlapį: spustelėkite ant žalios mygtukų su juodo kryžiaus žemyn,; žalią mygtuką su brūkšneliu, jei norite nutolinti; arba žalių rodyklių gretimoms žemėlapius.


METAR-TAF: